• Join FlightAware (Why Join?)
  • Login
  • US Flag 
05:03PM EDT


 

Airport Tracker/Info


-or-


 

Live Flight TrackerFlight Track Log ✈ AFL150 ✈ 09-Jun-2014 ✈ UUEE / SVO - MUHA / HAV

Flight Track Log - Related Links

Times and Time Zones

All times are in EDT time to prevent confusion due to time zone crossing. See the AFL150 flight status page for this flight to view local times or setup timezone preferences in your user account.

Time Position Orientation Groundspeed Altitude Reporting Facility
EDT Latitude Longitude Course Direction KTS MPH feet Rate Location/Type
06:27AM 56.2707 36.7814 310° West  Level FlightAware Approximate
06:28AM 56.3523 36.6037 310° West  Level FlightAware Approximate
06:29AM 56.4336 36.4253 310° West  Level FlightAware Approximate
06:30AM 56.5146 36.2461 309° West  Level FlightAware Approximate
06:31AM 56.5954 36.0661 309° West  Level FlightAware Approximate
06:32AM 56.6760 35.8854 309° West  Level FlightAware Approximate
06:33AM 56.7562 35.7038 309° West  Level FlightAware Approximate
06:34AM 56.8362 35.5215 309° West  Level FlightAware Approximate
06:35AM 56.9160 35.3385 309° West  Level FlightAware Approximate
06:36AM 56.9954 35.1546 308° West  Level FlightAware Approximate
06:37AM 57.0746 34.9700 308° West  Level FlightAware Approximate
06:38AM 57.1536 34.7845 308° West  Level FlightAware Approximate
06:39AM 57.2322 34.5983 308° West  Level FlightAware Approximate
06:40AM 57.3106 34.4113 308° West  Level FlightAware Approximate
06:41AM 57.3887 34.2234 308° West  Level FlightAware Approximate
06:42AM 57.4061 34.1725 306° West  Level FlightAware Approximate
06:43AM 57.4806 33.9793 306° West  Level FlightAware Approximate
06:44AM 57.5549 33.7854 306° West  Level FlightAware Approximate
06:45AM 57.6289 33.5906 305° West  Level FlightAware Approximate
06:46AM 57.7026 33.3951 305° West  Level FlightAware Approximate
06:47AM 57.7760 33.1987 305° West  Level FlightAware Approximate
06:48AM 57.8490 33.0016 305° West  Level FlightAware Approximate
06:49AM 57.9218 32.8037 305° West  Level FlightAware Approximate
06:50AM 57.9943 32.6050 305° West  Level FlightAware Approximate
06:51AM 58.0664 32.4054 304° West  Level FlightAware Approximate
06:52AM 58.1382 32.2051 304° West  Level FlightAware Approximate
06:53AM 58.2098 32.0039 304° West  Level FlightAware Approximate
06:54AM 58.2810 31.8020 304° West  Level FlightAware Approximate
06:55AM 58.3518 31.5992 304° West  Level FlightAware Approximate
06:56AM 58.4224 31.3956 304° West  Level FlightAware Approximate
06:57AM 58.4926 31.1912 303° West  Level FlightAware Approximate
06:58AM 58.5625 30.9860 303° West  Level FlightAware Approximate
06:59AM 58.6321 30.7800 303° West  Level FlightAware Approximate
07:00AM 58.7014 30.5731 303° West  Level FlightAware Approximate
07:01AM 58.7703 30.3654 303° West  Level FlightAware Approximate
07:02AM 58.8389 30.1569 303° West  Level FlightAware Approximate
07:03AM 58.9071 29.9476 302° West  Level FlightAware Approximate
07:04AM 58.9750 29.7374 302° West  Level FlightAware Approximate
07:05AM 59.0426 29.5265 302° West  Level FlightAware Approximate
07:06AM 59.1098 29.3146 302° West  Level FlightAware Approximate
07:07AM 59.1767 29.1020 302° West  Level FlightAware Approximate
07:08AM 59.2432 28.8885 301° West  Level FlightAware Approximate
07:09AM 59.3094 28.6742 301° West  Level FlightAware Approximate
07:10AM 59.3752 28.4591 301° West  Level FlightAware Approximate
07:11AM 59.4407 28.2431 301° West  Level FlightAware Approximate
07:12AM 59.5058 28.0263 301° West  Level FlightAware Approximate
07:13AM 59.5705 27.8087 300° West  Level FlightAware Approximate
07:14AM 59.6349 27.5902 300° West  Level FlightAware Approximate
07:15AM 59.6989 27.3709 300° West  Level FlightAware Approximate
07:16AM 59.7626 27.1507 300° West  Level FlightAware Approximate
07:17AM 59.8259 26.9297 300° West  Level FlightAware Approximate
07:18AM 59.8888 26.7079 300° West  Level FlightAware Approximate
07:19AM 59.9513 26.4852 299° West  Level FlightAware Approximate
07:20AM 60.0135 26.2617 299° West  Level FlightAware Approximate
07:21AM 60.0753 26.0373 299° West  Level FlightAware Approximate
07:22AM 60.1367 25.8122 299° West  Level FlightAware Approximate
07:23AM 60.1977 25.5861 299° West  Level FlightAware Approximate
07:24AM 60.2583 25.3593 298° West  Level FlightAware Approximate
07:25AM 60.3186 25.1315 298° West  Level FlightAware Approximate
07:26AM 60.3784 24.9030 298° West  Level FlightAware Approximate
07:27AM 60.4379 24.6736 298° West  Level FlightAware Approximate
07:28AM 60.4969 24.4434 298° West  Level FlightAware Approximate
07:29AM 60.5556 24.2123 297° West  Level FlightAware Approximate
07:30AM 60.6139 23.9804 297° West  Level FlightAware Approximate
07:31AM 60.6717 23.7477 297° West  Level FlightAware Approximate
07:32AM 60.7292 23.5141 297° West  Level FlightAware Approximate
07:33AM 60.7863 23.2797 297° West  Level FlightAware Approximate
07:34AM 60.8429 23.0445 296° West  Level FlightAware Approximate
07:35AM 60.8991 22.8084 296° West  Level FlightAware Approximate
07:36AM 60.9549 22.5715 296° West  Level FlightAware Approximate
07:37AM 61.0103 22.3338 296° West  Level FlightAware Approximate
07:38AM 61.0653 22.0952 296° West  Level FlightAware Approximate
07:39AM 61.1199 21.8558 295° West  Level FlightAware Approximate
07:40AM 61.1740 21.6156 295° West  Level FlightAware Approximate
07:41AM 61.2277 21.3746 295° West  Level FlightAware Approximate
07:42AM 61.2810 21.1327 295° West  Level FlightAware Approximate
07:43AM 61.3338 20.8901 295° West  Level FlightAware Approximate
07:44AM 61.3862 20.6466 294° West  Level FlightAware Approximate
07:45AM 61.4382 20.4023 294° West  Level FlightAware Approximate
07:46AM 61.4897 20.1572 294° West  Level FlightAware Approximate
07:47AM 61.5408 19.9112 294° West  Level FlightAware Approximate
07:48AM 61.5916 19.6646 293° West  Level FlightAware Approximate
07:49AM 61.6420 19.4173 293° West  Level FlightAware Approximate
07:50AM 61.6920 19.1691 293° West  Level FlightAware Approximate
07:51AM 61.7415 18.9202 293° West  Level FlightAware Approximate
07:52AM 61.7905 18.6704 293° West  Level FlightAware Approximate
07:53AM 61.8391 18.4198 292° West  Level FlightAware Approximate
07:54AM 61.8872 18.1685 292° West  Level FlightAware Approximate
07:55AM 61.9349 17.9163 292° West  Level FlightAware Approximate
07:56AM 61.9821 17.6634 292° West  Level FlightAware Approximate
07:57AM 62.0289 17.4097 292° West  Level FlightAware Approximate
07:58AM 62.0751 17.1552 291° West  Level FlightAware Approximate
07:59AM 62.1209 16.9000 291° West  Level FlightAware Approximate
08:00AM 62.1663 16.6439 291° West  Level FlightAware Approximate
08:01AM 62.2112 16.3871 291° West  Level FlightAware Approximate
08:02AM 62.2556 16.1296 290° West  Level FlightAware Approximate
08:03AM 62.2995 15.8713 290° West  Level FlightAware Approximate
08:04AM 62.3429 15.6123 290° West  Level FlightAware Approximate
08:05AM 62.3858 15.3524 290° West  Level FlightAware Approximate
08:06AM 62.4283 15.0919 290° West  Level FlightAware Approximate
08:07AM 62.4703 14.8306 289° West  Level FlightAware Approximate
08:08AM 62.5118 14.5686 289° West  Level FlightAware Approximate
08:09AM 62.5527 14.3059 289° West  Level FlightAware Approximate
08:10AM 62.5933 14.0424 289° West  Level FlightAware Approximate
08:11AM 62.6333 13.7782 288° West  Level FlightAware Approximate
08:12AM 62.6728 13.5134 288° West  Level FlightAware Approximate
08:13AM 62.7118 13.2478 288° West  Level FlightAware Approximate
08:14AM 62.7503 12.9815 288° West  Level FlightAware Approximate
08:15AM 62.7883 12.7145 287° West  Level FlightAware Approximate
08:16AM 62.8257 12.4469 287° West  Level FlightAware Approximate
08:17AM 62.8627 12.1785 287° West  Level FlightAware Approximate
08:18AM 62.8992 11.9095 287° West  Level FlightAware Approximate
08:19AM 62.9352 11.6398 286° West  Level FlightAware Approximate
08:20AM 62.9706 11.3695 286° West  Level FlightAware Approximate
08:21AM 63.0055 11.0985 286° West  Level FlightAware Approximate
08:22AM 63.0399 10.8269 286° West  Level FlightAware Approximate
08:23AM 63.0738 10.5547 285° West  Level FlightAware Approximate
08:24AM 63.1072 10.2817 285° West  Level FlightAware Approximate
08:25AM 63.1400 10.0082 285° West  Level FlightAware Approximate
08:26AM 63.1723 9.7341 285° West  Level FlightAware Approximate
08:27AM 63.2041 9.4594 285° West  Level FlightAware Approximate
08:28AM 63.2353 9.1840 284° West  Level FlightAware Approximate
08:29AM 63.2660 8.9081 284° West  Level FlightAware Approximate
08:30AM 63.2962 8.6316 284° West  Level FlightAware Approximate
08:31AM 63.3258 8.3545 284° West  Level FlightAware Approximate
08:32AM 63.3549 8.0768 283° West  Level FlightAware Approximate
08:33AM 63.3835 7.7986 283° West  Level FlightAware Approximate
08:34AM 63.4115 7.5199 283° West  Level FlightAware Approximate
08:35AM 63.4390 7.2406 283° West  Level FlightAware Approximate
08:36AM 63.4659 6.9608 282° West  Level FlightAware Approximate
08:37AM 63.4923 6.6804 282° West  Level FlightAware Approximate
08:38AM 63.5181 6.3995 282° West  Level FlightAware Approximate
08:39AM 63.5434 6.1182 282° West  Level FlightAware Approximate
08:40AM 63.5681 5.8363 281° West  Level FlightAware Approximate
08:41AM 63.5923 5.5540 281° West  Level FlightAware Approximate
08:42AM 63.6159 5.2712 281° West  Level FlightAware Approximate
08:43AM 63.6390 4.9879 281° West  Level FlightAware Approximate
08:44AM 63.6615 4.7041 280° West  Level FlightAware Approximate
08:45AM 63.6834 4.4200 280° West  Level FlightAware Approximate
08:46AM 63.7048 4.1353 280° West  Level FlightAware Approximate
08:47AM 63.7257 3.8503 280° West  Level FlightAware Approximate
08:48AM 63.7459 3.5649 279° West  Level FlightAware Approximate
08:49AM 63.7657 3.2790 279° West  Level FlightAware Approximate
08:50AM 63.7848 2.9928 279° West  Level FlightAware Approximate
08:51AM 63.8034 2.7061 278° West  Level FlightAware Approximate
08:52AM 63.8214 2.4191 278° West  Level FlightAware Approximate
08:53AM 63.8389 2.1318 278° West  Level FlightAware Approximate
08:54AM 63.8558 1.8441 278° West  Level FlightAware Approximate
08:55AM 63.8721 1.5560 277° West  Level FlightAware Approximate
08:56AM 63.8878 1.2676 277° West  Level FlightAware Approximate
08:57AM 63.9030 0.9789 277° West  Level FlightAware Approximate
08:58AM 63.9176 0.6899 277° West  Level FlightAware Approximate
08:59AM 63.9316 0.4006 276° West  Level FlightAware Approximate
09:00AM 63.9450 0.1110 276° West  Level FlightAware Approximate
09:01AM 63.9576 -0.1789 276° West  Level FlightAware Approximate
09:02AM 63.9696 -0.4691 275° West  Level FlightAware Approximate
09:03AM 63.9809 -0.7595 275° West  Level FlightAware Approximate
09:04AM 63.9917 -1.0502 275° West  Level FlightAware Approximate
09:05AM 64.0019 -1.3410 275° West  Level FlightAware Approximate
09:06AM 64.0115 -1.6321 274° West  Level FlightAware Approximate
09:07AM 64.0205 -1.9234 274° West  Level FlightAware Approximate
09:08AM 64.0290 -2.2148 274° West  Level FlightAware Approximate
09:09AM 64.0368 -2.5065 274° West  Level FlightAware Approximate
09:10AM 64.0441 -2.7983 273° West  Level FlightAware Approximate
09:11AM 64.0508 -3.0902 273° West  Level FlightAware Approximate
09:12AM 64.0569 -3.3823 273° West  Level FlightAware Approximate
09:13AM 64.0624 -3.6744 273° West  Level FlightAware Approximate
09:14AM 64.0673 -3.9667 272° West  Level FlightAware Approximate
09:15AM 64.0716 -4.2591 272° West  Level FlightAware Approximate
09:16AM 64.0754 -4.5516 272° West  Level FlightAware Approximate
09:17AM 64.0786 -4.8442 272° West  Level FlightAware Approximate
09:18AM 64.0811 -5.1368 271° West  Level FlightAware Approximate
09:19AM 64.0831 -5.4294 271° West  Level FlightAware Approximate
09:20AM 64.0845 -5.7221 271° West  Level FlightAware Approximate
09:21AM 64.0854 -6.0149 270° West  Level FlightAware Approximate
09:22AM 64.0856 -6.3076 270° West  Level FlightAware Approximate
09:23AM 64.0852 -6.6003 270° West  Level FlightAware Approximate
09:24AM 64.0843 -6.8930 270° West  Level FlightAware Approximate
09:25AM 64.0827 -7.1857 269° West  Level FlightAware Approximate
09:26AM 64.0806 -7.4784 269° West  Level FlightAware Approximate
09:27AM 64.0779 -7.7710 269° West  Level FlightAware Approximate
09:28AM 64.0746 -8.0635 269° West  Level FlightAware Approximate
09:29AM 64.0707 -8.3560 268° West  Level FlightAware Approximate
09:30AM 64.0663 -8.6484 268° West  Level FlightAware Approximate
09:31AM 64.0612 -8.9406 268° West  Level FlightAware Approximate
09:32AM 64.0556 -9.2328 268° West  Level FlightAware Approximate
09:33AM 64.0493 -9.5248 267° West  Level FlightAware Approximate
09:34AM 64.0425 -9.8167 267° West  Level FlightAware Approximate
09:35AM 64.0351 -10.1085 267° West  Level FlightAware Approximate
09:36AM 64.0271 -10.4001 267° West  Level FlightAware Approximate
09:37AM 64.0185 -10.6915 266° West  Level FlightAware Approximate
09:38AM 64.0094 -10.9827 266° West  Level FlightAware Approximate
09:39AM 63.9997 -11.2738 266° West  Level FlightAware Approximate
09:40AM 63.9893 -11.5646 266° West  Level FlightAware Approximate
09:41AM 63.9785 -11.8552 265° West  Level FlightAware Approximate
09:42AM 63.9670 -12.1456 265° West  Level FlightAware Approximate
09:43AM 63.9549 -12.4357 265° West  Level FlightAware Approximate
09:44AM 63.9424 -12.7256 264° West  Level FlightAware Approximate
09:45AM 63.9295 -13.0153 264° West  Level FlightAware Approximate
09:46AM 63.9160 -13.3047 264° West  Level FlightAware Approximate
09:47AM 63.9019 -13.5938 264° West  Level FlightAware Approximate
09:48AM 63.8872 -13.8826 264° West  Level FlightAware Approximate
09:49AM 63.8719 -14.1711 263° West  Level FlightAware Approximate
09:50AM 63.8561 -14.4593 263° West  Level FlightAware Approximate
09:51AM 63.8397 -14.7472 263° West  Level FlightAware Approximate
09:52AM 63.8227 -15.0347 263° West  Level FlightAware Approximate
09:53AM 63.8052 -15.3219 262° West  Level FlightAware Approximate
09:54AM 63.7870 -15.6087 262° West  Level FlightAware Approximate
09:55AM 63.7684 -15.8951 262° West  Level FlightAware Approximate
09:56AM 63.7491 -16.1812 261° West  Level FlightAware Approximate
09:57AM 63.7293 -16.4668 261° West  Level FlightAware Approximate
09:58AM 63.7089 -16.7521 261° West  Level FlightAware Approximate
09:59AM 63.6880 -17.0369 261° West  Level FlightAware Approximate
10:00AM 63.6665 -17.3213 260° West  Level FlightAware Approximate
10:01AM 63.6444 -17.6053 260° West  Level FlightAware Approximate
10:02AM 63.6218 -17.8888 260° West  Level FlightAware Approximate
10:03AM 63.5986 -18.1718 260° West  Level FlightAware Approximate
10:04AM 63.5749 -18.4544 259° West  Level FlightAware Approximate
10:05AM 63.5506 -18.7366 259° West  Level FlightAware Approximate
10:06AM 63.5257 -19.0182 259° West  Level FlightAware Approximate
10:07AM 63.5003 -19.2993 259° West  Level FlightAware Approximate
10:08AM 63.4744 -19.5800 258° West  Level FlightAware Approximate
10:09AM 63.4479 -19.8601 258° West  Level FlightAware Approximate
10:10AM 63.4208 -20.1397 258° West  Level FlightAware Approximate
10:11AM 63.3933 -20.4188 258° West  Level FlightAware Approximate
10:12AM 63.3651 -20.6973 257° West  Level FlightAware Approximate
10:13AM 63.3365 -20.9753 257° West  Level FlightAware Approximate
10:14AM 63.3073 -21.2527 257° West  Level FlightAware Approximate
10:15AM 63.2775 -21.5295 257° West  Level FlightAware Approximate
10:16AM 63.2472 -21.8058 256° West  Level FlightAware Approximate
10:17AM 63.2164 -22.0815 256° West  Level FlightAware Approximate
10:18AM 63.1851 -22.3566 256° West  Level FlightAware Approximate
10:19AM 63.1532 -22.6311 256° West  Level FlightAware Approximate
10:20AM 63.1208 -22.9049 255° West  Level FlightAware Approximate
10:21AM 63.0878 -23.1782 255° West  Level FlightAware Approximate
10:22AM 63.0544 -23.4509 255° West  Level FlightAware Approximate
10:23AM 63.0204 -23.7229 255° West  Level FlightAware Approximate
10:24AM 62.9859 -23.9943 254° West  Level FlightAware Approximate
10:25AM 62.9509 -24.2650 254° West  Level FlightAware Approximate
10:26AM 62.9153 -24.5351 254° West  Level FlightAware Approximate
10:27AM 62.8793 -24.8046 254° West  Level FlightAware Approximate
10:28AM 62.8428 -25.0734 254° West  Level FlightAware Approximate
10:29AM 62.8058 -25.3415 253° West  Level FlightAware Approximate
10:30AM 62.7683 -25.6089 253° West  Level FlightAware Approximate
10:31AM 62.7303 -25.8757 253° West  Level FlightAware Approximate
10:32AM 62.6917 -26.1418 253° West  Level FlightAware Approximate
10:33AM 62.6527 -26.4072 252° West  Level FlightAware Approximate
10:34AM 62.6132 -26.6719 252° West  Level FlightAware Approximate
10:35AM 62.5732 -26.9359 252° West  Level FlightAware Approximate
10:36AM 62.5326 -27.1991 252° West  Level FlightAware Approximate
10:37AM 62.4916 -27.4617 251° West  Level FlightAware Approximate
10:38AM 62.4501 -27.7235 251° West  Level FlightAware Approximate
10:39AM 62.4081 -27.9846 251° West  Level FlightAware Approximate
10:40AM 62.3657 -28.2449 251° West  Level FlightAware Approximate
10:41AM 62.3227 -28.5046 250° West  Level FlightAware Approximate
10:42AM 62.2793 -28.7634 250° West  Level FlightAware Approximate
10:43AM 62.2353 -29.0215 250° West  Level FlightAware Approximate
10:44AM 62.1909 -29.2789 250° West  Level FlightAware Approximate
10:45AM 62.1460 -29.5355 250° West  Level FlightAware Approximate
10:46AM 62.1007 -29.7913 249° West  Level FlightAware Approximate
10:47AM 62.0549 -30.0464 249° West  Level FlightAware Approximate
10:48AM 62.0085 -30.3007 249° West  Level FlightAware Approximate
10:49AM 61.9618 -30.5542 249° West  Level FlightAware Approximate
10:50AM 61.9146 -30.8070 248° West  Level FlightAware Approximate
10:51AM 61.8669 -31.0590 248° West  Level FlightAware Approximate
10:52AM 61.8187 -31.3101 248° West  Level FlightAware Approximate
10:53AM 61.7701 -31.5605 248° West  Level FlightAware Approximate
10:54AM 61.7211 -31.8101 248° West  Level FlightAware Approximate
10:55AM 61.6716 -32.0589 247° West  Level FlightAware Approximate
10:56AM 61.6213 -32.3066 247° West  Level FlightAware Approximate
10:57AM 61.5705 -32.5534 247° West  Level FlightAware Approximate
10:58AM 61.5192 -32.7994 247° West  Level FlightAware Approximate
10:59AM 61.4676 -33.0447 246° West  Level FlightAware Approximate
11:00AM 61.4154 -33.2891 246° West  Level FlightAware Approximate
11:01AM 61.3629 -33.5326 246° West  Level FlightAware Approximate
11:02AM 61.3099 -33.7754 246° West  Level FlightAware Approximate
11:03AM 61.2565 -34.0173 245° Southwest  Level FlightAware Approximate
11:04AM 61.2026 -34.2584 245° Southwest  Level FlightAware Approximate
11:05AM 61.1484 -34.4987 245° Southwest  Level FlightAware Approximate
11:06AM 61.0937 -34.7382 245° Southwest  Level FlightAware Approximate
11:07AM 61.0386 -34.9768 245° Southwest  Level FlightAware Approximate
11:08AM 60.9830 -35.2146 244° Southwest  Level FlightAware Approximate
11:09AM 60.9271 -35.4516 244° Southwest  Level FlightAware Approximate
11:10AM 60.8707 -35.6877 244° Southwest  Level FlightAware Approximate
11:11AM 60.8139 -35.9230 244° Southwest  Level FlightAware Approximate
11:12AM 60.7567 -36.1575 244° Southwest  Level FlightAware Approximate
11:13AM 60.6991 -36.3911 243° Southwest  Level FlightAware Approximate
11:14AM 60.6411 -36.6239 243° Southwest  Level FlightAware Approximate
11:15AM 60.5827 -36.8558 243° Southwest  Level FlightAware Approximate
11:16AM 60.5239 -37.0870 243° Southwest  Level FlightAware Approximate
11:17AM 60.4651 -37.3177 243° Southwest  Level FlightAware Approximate
11:18AM 60.4059 -37.5475 243° Southwest  Level FlightAware Approximate
11:19AM 60.3463 -37.7765 242° Southwest  Level FlightAware Approximate
11:20AM 60.2863 -38.0047 242° Southwest  Level FlightAware Approximate
11:21AM 60.2259 -38.2320 242° Southwest  Level FlightAware Approximate
11:22AM 60.1651 -38.4585 242° Southwest  Level FlightAware Approximate
11:23AM 60.1040 -38.6842 242° Southwest  Level FlightAware Approximate
11:24AM 60.0424 -38.9090 241° Southwest  Level FlightAware Approximate
11:25AM 59.9805 -39.1329 241° Southwest  Level FlightAware Approximate
11:26AM 59.9182 -39.3561 241° Southwest  Level FlightAware Approximate
11:27AM 59.8555 -39.5784 241° Southwest  Level FlightAware Approximate
11:28AM 59.7925 -39.7998 241° Southwest  Level FlightAware Approximate
11:29AM 59.7291 -40.0204 240° Southwest  Level FlightAware Approximate
11:30AM 59.6653 -40.2402 240° Southwest  Level FlightAware Approximate
11:31AM 59.6011 -40.4592 240° Southwest  Level FlightAware Approximate
11:32AM 59.5366 -40.6773 240° Southwest  Level FlightAware Approximate
11:33AM 59.4717 -40.8945 240° Southwest  Level FlightAware Approximate
11:34AM 59.4065 -41.1110 239° Southwest  Level FlightAware Approximate
11:35AM 59.3409 -41.3266 239° Southwest  Level FlightAware Approximate
11:36AM 59.2749 -41.5413 239° Southwest  Level FlightAware Approximate
11:37AM 59.2086 -41.7553 239° Southwest  Level FlightAware Approximate
11:38AM 59.1420 -41.9684 239° Southwest  Level FlightAware Approximate
11:39AM 59.0750 -42.1806 239° Southwest  Level FlightAware Approximate
11:40AM 59.0076 -42.3921 238° Southwest  Level FlightAware Approximate
11:41AM 58.9399 -42.6027 238° Southwest  Level FlightAware Approximate
11:42AM 58.8719 -42.8125 238° Southwest  Level FlightAware Approximate
11:43AM 58.8035 -43.0215 238° Southwest  Level FlightAware Approximate
11:44AM 58.7346 -43.2293 237° Southwest  Level FlightAware Approximate
11:45AM 58.6651 -43.4361 237° Southwest  Level FlightAware Approximate
11:46AM 58.5953 -43.6421 237° Southwest  Level FlightAware Approximate
11:47AM 58.5252 -43.8472 237° Southwest  Level FlightAware Approximate
11:48AM 58.4547 -44.0515 237° Southwest  Level FlightAware Approximate
11:49AM 58.3839 -44.2550 236° Southwest  Level FlightAware Approximate
11:50AM 58.3128 -44.4577 236° Southwest  Level FlightAware Approximate
11:51AM 58.2414 -44.6595 236° Southwest  Level FlightAware Approximate
11:52AM 58.1697 -44.8606 236° Southwest  Level FlightAware Approximate
11:53AM 58.0976 -45.0608 236° Southwest  Level FlightAware Approximate
11:54AM 58.0252 -45.2602 236° Southwest  Level FlightAware Approximate
11:55AM 57.9526 -45.4588 235° Southwest  Level FlightAware Approximate
11:56AM 57.8796 -45.6566 235° Southwest  Level FlightAware Approximate
11:57AM 57.8063 -45.8536 235° Southwest  Level FlightAware Approximate
11:58AM 57.7327 -46.0499 235° Southwest  Level FlightAware Approximate
11:59AM 57.6588 -46.2453 235° Southwest  Level FlightAware Approximate
12:00PM 57.5846 -46.4399 235° Southwest  Level FlightAware Approximate
12:01PM 57.5101 -46.6337 234° Southwest  Level FlightAware Approximate
12:02PM 57.4353 -46.8267 234° Southwest  Level FlightAware Approximate
12:03PM 57.3602 -47.0190 234° Southwest  Level FlightAware Approximate
12:04PM 57.2848 -47.2104 234° Southwest  Level FlightAware Approximate
12:05PM 57.2092 -47.4011 234° Southwest  Level FlightAware Approximate
12:06PM 57.1332 -47.5910 234° Southwest  Level FlightAware Approximate
12:07PM 57.0570 -47.7801 233° Southwest  Level FlightAware Approximate
12:08PM 56.9804 -47.9684 233° Southwest  Level FlightAware Approximate
12:09PM 56.9036 -48.1559 233° Southwest  Level FlightAware Approximate
12:10PM 56.8265 -48.3427 233° Southwest  Level FlightAware Approximate
12:11PM 56.7492 -48.5288 233° Southwest  Level FlightAware Approximate
12:12PM 56.6716 -48.7141 233° Southwest  Level FlightAware Approximate
12:13PM 56.5937 -48.8986 233° Southwest  Level FlightAware Approximate
12:14PM 56.5156 -49.0824 232° Southwest  Level FlightAware Approximate
12:15PM 56.4372 -49.2655 232° Southwest  Level FlightAware Approximate
12:16PM 56.3585 -49.4478 232° Southwest  Level FlightAware Approximate
12:17PM 56.2796 -49.6293 232° Southwest  Level FlightAware Approximate
12:18PM 56.2004 -49.8101 232° Southwest  Level FlightAware Approximate
12:19PM 56.1209 -49.9902 232° Southwest  Level FlightAware Approximate
12:20PM 56.0412 -50.1695 232° Southwest  Level FlightAware Approximate
12:21PM 55.9612 -50.3480 231° Southwest  Level FlightAware Approximate
12:22PM 55.8810 -50.5259 231° Southwest  Level FlightAware Approximate
12:23PM 55.8005 -50.7030 231° Southwest  Level FlightAware Approximate
12:24PM 55.7197 -50.8793 231° Southwest  Level FlightAware Approximate
12:25PM 55.6387 -51.0550 231° Southwest  Level FlightAware Approximate
12:26PM 55.5577 -51.2302 231° Southwest  Level FlightAware Approximate
12:27PM 55.4765 -51.4048 231° Southwest  Level FlightAware Approximate
12:28PM 55.3950 -51.5786 231° Southwest  Level FlightAware Approximate
12:29PM 55.3133 -51.7517 230° Southwest  Level FlightAware Approximate
12:30PM 55.2313 -51.9241 230° Southwest  Level FlightAware Approximate
12:31PM 55.1491 -52.0958 230° Southwest  Level FlightAware Approximate
12:32PM 55.0666 -52.2668 230° Southwest  Level FlightAware Approximate
12:33PM 54.9835 -52.4226 227° Southwest  Level Estimated
12:33PM 60.2333 -55.8167 227° Southwest 470 541 37,000  Level Gander Center
12:34PM 54.9003 -52.5777 227° Southwest  Level Estimated
12:34PM 60.1333 -56.0667 231° Southwest 340 391 37,000  Level Gander Center
12:35PM 54.8168 -52.7322 227° Southwest  Level Estimated
12:35PM 60.0833 -56.2833 245° Southwest 460 529 37,000  Level Gander Center
12:36PM 54.7332 -52.8861 227° Southwest  Level Estimated
12:36PM 59.9833 -56.5000 227° Southwest 470 541 37,000  Level Gander Center
12:37PM 54.6493 -53.0393 227° Southwest  Level Estimated
12:37PM 59.8833 -56.6333 214° Southwest 460 529 37,000  Level Gander Center
12:38PM 54.5653 -53.1919 227° Southwest  Level Estimated
12:38PM 59.7833 -56.8167 223° Southwest 460 529 37,000  Level Gander Center
12:39PM 59.6833 -56.9667 217° Southwest 460 529 37,000  Level Gander Center
12:40PM 59.5833 -57.1333 220° Southwest 460 529 37,000  Level Gander Center
12:41PM 59.5000 -57.2833 222° Southwest 460 529 37,000  Level Gander Center
12:42PM 59.4000 -57.4500 220° Southwest 460 529 37,000  Level Gander Center
12:43PM 59.3000 -57.6333 223° Southwest 460 529 37,000  Level Gander Center
12:44PM 59.2000 -57.7667 214° Southwest 460 529 37,000  Level Gander Center
12:45PM 59.1167 -57.9333 226° Southwest 460 529 37,000  Level Gander Center
12:46PM 59.0000 -58.0833 214° Southwest 460 529 37,000  Level Gander Center
12:47PM 58.9000 -58.2500 221° Southwest 460 529 37,000  Level Gander Center
12:48PM 58.8000 -58.3833 215° Southwest 460 529 37,000  Level Gander Center
12:49PM 58.6833 -58.5000 207° Southwest 460 529 37,000  Level Gander Center
12:50PM 58.5833 -58.6333 215° Southwest 460 529 37,000  Level Gander Center
12:51PM 58.4667 -58.7333 204° Southwest 460 529 37,000  Level Gander Center
12:52PM 58.3500 -58.8667 211° Southwest 460 529 37,000  Level Gander Center
12:53PM 58.2500 -59.0000 215° Southwest 460 529 37,000  Level Gander Center
12:54PM 58.1333 -59.1000 204° Southwest 460 529 37,000 -240 Level Gander Center
12:55PM 58.0167 -59.2333 211° Southwest 470 541 36,600 -540 Descending Gander Center
12:56PM 57.9000 -59.3333 204° Southwest 460 529 36,000 -300 Descending Gander Center
12:57PM 57.7833 -59.4667 211° Southwest 460 529 36,000  Level Gander Center
12:58PM 57.6833 -59.6000 216° Southwest 460 529 36,000  Level Gander Center
12:59PM 57.6000 -59.7000 213° Southwest 470 541 36,000  Level Gander Center
01:00PM 57.4667 -59.8167 205° Southwest 460 529 36,000  Level Gander Center
01:01PM 57.3667 -59.9167 208° Southwest 460 529 36,000  Level Gander Center
01:02PM 57.2500 -60.0167 205° Southwest 460 529 36,000  Level Gander Center
01:03PM 57.1333 -60.1500 212° Southwest 470 541 36,000  Level Gander Center
01:04PM 57.0167 -60.2667 209° Southwest 460 529 36,000  Level Gander Center
01:05PM 56.9000 -60.4000 212° Southwest 450 518 36,000  Level Gander Center
01:06PM 56.7833 -60.4833 201° Southwest 460 529 36,000  Level Gander Center
01:07PM 56.6667 -60.6167 212° Southwest 470 541 36,000  Level Gander Center
01:08PM 56.5500 -60.7000 201° Southwest 470 541 36,000  Level Gander Center
01:09PM 56.4500 -60.8333 216° Southwest 460 529 36,000  Level Gander Center
01:10PM 56.3333 -60.9500 209° Southwest 460 529 36,000  Level Gander Center
01:11PM 56.2167 -61.0500 205° Southwest 460 529 36,000  Level Gander Center
01:12PM 56.1000 -61.1667 209° Southwest 460 529 36,000  Level Gander Center
01:13PM 55.9833 -61.2500 202° Southwest 460 529 36,000  Level Gander Center
01:14PM 55.8833 -61.3667 213° Southwest 450 518 36,000  Level Gander Center
01:15PM 55.7667 -61.4667 206° Southwest 450 518 36,000  Level Gander Center
01:16PM 55.6500 -61.5833 209° Southwest 450 518 36,000  Level Gander Center
01:17PM 55.5500 -61.6667 205° Southwest 450 518 36,000  Level Gander Center
01:18PM 55.4333 -61.7500 202° Southwest 450 518 36,000  Level Gander Center
01:19PM 55.3167 -61.8667 210° Southwest 450 518 36,000  Level Gander Center
01:20PM 55.2167 -61.9500 205° Southwest 450 518 36,000  Level Gander Center
01:21PM 55.1000 -62.0667 210° Southwest 440 506 36,000  Level Gander Center
01:22PM 55.0000 -62.1500 206° Southwest 450 518 36,000  Level Gander Center
01:23PM 54.8833 -62.2667 210° Southwest 440 506 36,000  Level Gander Center
01:24PM 54.7833 -62.3500 206° Southwest 440 506 36,000  Level Gander Center
01:25PM 54.6667 -62.4333 202° Southwest 440 506 36,000  Level Gander Center
01:26PM 54.5667 -62.5500 214° Southwest 440 506 36,000  Level Gander Center
01:27PM 54.4333 -62.6333 200° South 440 506 36,000  Level Gander Center
01:28PM 54.3333 -62.7500 214° Southwest 440 506 36,000  Level Gander Center
01:29PM 54.2167 -62.8333 203° Southwest 440 506 36,000  Level Gander Center
01:30PM 54.1000 -62.9000 199° South 440 506 36,000  Level Gander Center
01:31PM 54.0000 -63.0167 214° Southwest 440 506 36,000  Level Gander Center
01:32PM 53.9000 -63.1000 206° Southwest 430 495 36,000  Level Gander Center
01:33PM 53.7833 -63.1833 203° Southwest 440 506 36,000  Level Gander Center
01:34PM 53.6833 -63.2833 211° Southwest 430 495 36,000  Level Gander Center
01:35PM 53.5667 -63.3667 203° Southwest 430 495 36,000  Level Gander Center
01:36PM 53.4667 -63.4667 211° Southwest 430 495 36,000  Level Gander Center
01:37PM 53.3500 -63.5500 203° Southwest 430 495 36,000  Level Gander Center
01:38PM 53.2333 -63.6333 203° Southwest 430 495 36,000  Level Gander Center
01:39PM 53.1333 -63.7000 202° Southwest 430 495 36,000  Level Gander Center
01:40PM 53.0333 -63.8167 215° Southwest 430 495 36,000  Level Gander Center
01:41PM 52.9167 -63.8833 199° South 430 495 36,000  Level Gander Center
01:42PM 52.8167 -63.9667 207° Southwest 430 495 36,000  Level Gander Center
01:43PM 52.7000 -64.0667 207° Southwest 430 495 36,000  Level Gander Center
01:44PM 52.6000 -64.1500 207° Southwest 420 483 36,000  Level Gander Center
01:45PM 52.4833 -64.2167 199° South 430 495 36,000  Level Gander Center
01:46PM 52.3833 -64.3000 207° Southwest 430 495 36,000  Level Gander Center
01:47PM 52.2667 -64.4000 208° Southwest 430 495 36,000  Level Gander Center
01:48PM 52.1667 -64.4667 202° Southwest 430 495 36,000  Level Gander Center
01:49PM 52.0500 -64.5500 204° Southwest 430 495 36,000  Level Gander Center
01:50PM 51.9500 -64.6167 202° Southwest 420 483 36,000  Level Gander Center
01:51PM 51.8333 -64.7167 208° Southwest 430 495 36,000  Level Gander Center
01:52PM 51.7333 -64.8000 207° Southwest 420 483 36,000  Level Gander Center
01:53PM 51.6333 -64.8667 202° Southwest 430 495 36,000  Level Gander Center
01:54PM 51.5167 -64.9667 208° Southwest 430 495 36,000  Level Gander Center
01:55PM 51.4167 -65.0333 203° Southwest 430 495 36,000  Level Gander Center
01:56PM 51.3000 -65.1000 200° South 430 495 36,000  Level Gander Center
01:57PM 51.1833 -65.1833 204° Southwest 430 495 36,000  Level Gander Center
01:58PM 51.0833 -65.2833 212° Southwest 430 495 36,000  Level Gander Center
01:59PM 50.9667 -65.3500 200° South 430 495 36,000  Level Gander Center
02:00PM 50.8667 -65.4167 203° Southwest 430 495 36,000  Level Gander Center
02:01PM 50.7667 -65.5167 212° Southwest 430 495 36,000  Level Gander Center
02:02PM 50.6500 -65.5833 200° South 430 495 36,000  Level Gander Center
02:03PM 50.5333 -65.6500 200° South 430 495 36,000  Level Gander Center
02:04PM 50.4333 -65.7167 203° Southwest 430 495 36,000  Level Gander Center
02:05PM 50.3167 -65.8167 209° Southwest 430 495 36,000  Level Gander Center
02:06PM 50.2167 -65.8833 203° Southwest 430 495 36,000  Level Gander Center
02:07PM 50.1167 -65.9500 203° Southwest 430 495 36,000  Level Gander Center
02:08PM 49.9500 -66.0667 204° Southwest 430 495 36,000  Level Moncton Center
02:09PM 49.8500 -66.1333 203° Southwest 430 495 36,000  Level Moncton Center
02:10PM 49.7333 -66.2167 205° Southwest 440 506 36,000  Level Moncton Center
02:11PM 49.6167 -66.2833 200° South 440 506 36,000  Level Moncton Center
02:12PM 49.4833 -66.3833 206° Southwest 440 506 36,000  Level Moncton Center
02:13PM 49.3833 -66.4333 198° South 440 506 36,000  Level Moncton Center
02:14PM 49.2833 -66.5000 204° Southwest 440 506 36,000  Level Moncton Center
02:15PM 49.1667 -66.6000 209° Southwest 440 506 36,000  Level Moncton Center
02:16PM 49.1000 -66.6500 206° Southwest 440 506 36,000  Level Gander Center
02:17PM 48.9833 -66.7167 201° Southwest 440 506 36,000  Level Gander Center
02:18PM 48.8833 -66.7833 204° Southwest 440 506 36,000  Level Gander Center
02:19PM 48.7667 -66.8667 205° Southwest 430 495 36,000  Level Gander Center
02:20PM 48.6500 -66.9333 201° Southwest 430 495 36,000  Level Gander Center
02:21PM 48.5333 -66.9833 196° South 440 506 36,000  Level Gander Center
02:22PM 48.4333 -67.0833 214° Southwest 440 506 36,000  Level Gander Center
02:23PM 48.3333 -67.1500 204° Southwest 430 495 36,000  Level Gander Center
02:24PM 48.2167 -67.2000 196° South 430 495 36,000  Level Gander Center
02:25PM 48.1000 -67.2833 206° Southwest 430 495 36,000  Level Gander Center
02:26PM 47.9833 -67.3500 201° Southwest 430 495 36,000  Level Gander Center
02:27PM 47.8833 -67.4167 204° Southwest 430 495 36,000  Level Gander Center
02:28PM 47.7500 -67.5000 203° Southwest 430 495 36,000  Level Gander Center
02:29PM 47.6500 -67.5667 204° Southwest 430 495 36,000  Level Gander Center
02:30PM 47.5333 -67.6167 196° South 430 495 36,000  Level Gander Center
02:31PM 47.4519 -67.6850 210° Southwest 434 499 36,000  Level Boston Center
02:32PM 47.3392 -67.7533 202° Southwest 438 504 36,000  Level Boston Center
02:33PM 47.2269 -67.8228 203° Southwest 438 504 36,000  Level Boston Center
02:34PM 47.1142 -67.8908 202° Southwest 440 506 36,000  Level Boston Center
02:35PM 47.0011 -67.9606 203° Southwest 440 506 36,000  Level Boston Center
02:36PM 46.8922 -68.0242 202° Southwest 445 512 36,000  Level Boston Center
02:37PM 46.7536 -68.1044 202° Southwest 445 512 36,000  Level Boston Center
02:38PM 46.6317 -68.1533 195° South 450 518 36,000  Level Boston Center
02:39PM 46.5111 -68.2033 196° South 450 518 36,000  Level Boston Center
02:40PM 46.3900 -68.2525 196° South 450 518 36,000  Level Boston Center
02:41PM 46.2708 -68.3036 197° South 449 517 36,000  Level Boston Center
02:42PM 46.1519 -68.3542 196° South 448 516 36,000  Level Boston Center
02:43PM 46.0322 -68.4017 195° South 447 514 36,000  Level Boston Center
02:44PM 45.9142 -68.4494 196° South 447 514 36,000  Level Boston Center
02:45PM 45.7947 -68.4975 196° South 447 514 36,000  Level Boston Center
02:46PM 45.6694 -68.5458 195° South 447 514 36,000  Level Boston Center
02:47PM 45.5492 -68.5950 196° South 447 514 36,000  Level Boston Center
02:48PM 45.4061 -68.6519 196° South 447 514 36,000  Level Boston Center
02:49PM 45.2856 -68.6997 196° South 447 514 36,000  Level Boston Center
02:50PM 45.1658 -68.7467 195° South 445 512 36,000  Level Boston Center
02:51PM 45.0547 -68.8175 204° Southwest 433 498 36,000  Level Boston Center
02:52PM 44.9567 -68.9139 215° Southwest 429 494 36,000  Level Boston Center
02:53PM 44.8592 -69.0097 215° Southwest 426 490 36,000  Level Boston Center
02:54PM 44.7617 -69.1067 215° Southwest 425 489 36,000  Level Boston Center
02:55PM 44.6639 -69.2022 215° Southwest 425 489 36,000  Level Boston Center
02:56PM 44.5656 -69.2969 214° Southwest 425 489 36,000  Level Boston Center
02:58PM 44.4675 -69.3908 214° Southwest 425 489 36,000  Level Boston Center
02:59PM 44.3683 -69.4864 215° Southwest 425 489 36,000  Level Boston Center
03:00PM 44.2692 -69.5808 214° Southwest 425 489 36,000  Level Boston Center
03:01PM 44.1703 -69.6756 215° Southwest 426 490 36,000  Level Boston Center
03:02PM 44.0714 -69.7697 214° Southwest 426 490 36,000  Level Boston Center
03:03PM 43.9525 -69.8828 214° Southwest 428 493 36,000  Level Boston Center
03:04PM 43.8533 -69.9758 214° Southwest 428 493 36,000  Level Boston Center
03:05PM 43.7536 -70.0692 214° Southwest 428 493 36,000  Level Boston Center
03:06PM 43.6533 -70.1611 214° Southwest 429 494 36,000  Level Boston Center
03:07PM 43.5539 -70.2539 214° Southwest 429 494 36,000  Level Boston Center
03:08PM 43.4553 -70.3483 215° Southwest 429 494 36,000  Level Boston Center
03:09PM 43.3603 -70.4347 213° Southwest 430 495 36,000  Level Boston Center
03:10PM 43.2417 -70.5431 214° Southwest 430 495 36,000  Level Boston Center
03:11PM 43.1431 -70.6336 214° Southwest 430 495 36,000  Level Boston Center
03:12PM 43.0458 -70.7239 214° Southwest 427 491 36,000  Level Boston Center
03:13PM 42.9481 -70.8111 213° Southwest 426 490 36,000  Level Boston Center
03:14PM 42.8497 -70.8992 213° Southwest 426 490 36,000  Level Boston Center
03:15PM 42.7519 -70.9897 214° Southwest 426 490 36,000  Level Boston Center
03:16PM 42.6603 -71.0878 218° Southwest 423 487 36,000  Level Boston Center
03:17PM 42.5481 -71.2036 217° Southwest 424 488 36,000  Level Boston Center
03:18PM 42.4558 -71.3003 218° Southwest 423 487 36,000  Level Boston Center
03:19PM 42.3617 -71.3969 217° Southwest 424 488 36,000  Level Boston Center
03:20PM 42.2778 -71.4839 217° Southwest 424 488 36,000  Level Boston Center
03:21PM 42.1639 -71.5981 217° Southwest 424 488 36,000  Level Boston Center
03:22PM 42.0717 -71.6933 217° Southwest 422 486 36,000  Level Boston Center
03:23PM 41.9772 -71.7881 217° Southwest 422 486 36,000  Level Boston Center
03:24PM 41.8833 -71.8831 217° Southwest 421 484 36,000  Level Boston Center
03:25PM 41.7886 -71.9783 217° Southwest 423 487 36,000  Level Boston Center
03:26PM 41.6939 -72.0722 217° Southwest 422 486 36,000  Level Boston Center
03:27PM 41.5994 -72.1653 216° Southwest 423 487 36,000  Level Boston Center
03:28PM 41.4939 -72.2717 217° Southwest 424 488 36,000  Level Boston Center
03:29PM 41.3978 -72.3647 216° Southwest 426 490 36,000  Level Boston Center
03:30PM 41.3028 -72.4597 217° Southwest 430 495 36,000  Level Boston Center
03:31PM 41.1961 -72.5639 216° Southwest 431 496 36,000  Level Boston Center
03:32PM 41.0994 -72.6578 216° Southwest 432 497 36,000  Level Boston Center
03:33PM 41.0028 -72.7528 217° Southwest 436 502 36,000  Level Boston Center
03:34PM 40.9058 -72.8458 216° Southwest 436 502 36,000  Level Boston Center
03:35PM 40.8078 -72.9433 217° Southwest 440 506 36,000  Level Boston Center
03:37PM 40.7011 -73.0447 216° Southwest 436 502 36,000  Level Boston Center
03:38PM 40.6025 -73.1386 216° Southwest 438 504 36,000  Level Boston Center
03:39PM 40.5039 -73.2331 216° Southwest 438 504 36,000  Level Boston Center
03:40PM 40.4042 -73.3261 215° Southwest 438 504 36,000  Level Boston Center
03:41PM 40.3053 -73.4189 216° Southwest 438 504 36,000  Level Boston Center
03:42PM 40.1967 -73.5219 216° Southwest 438 504 36,000  Level Boston Center
03:43PM 40.0983 -73.6142 216° Southwest 437 503 36,000  Level Boston Center
03:44PM 39.9911 -73.7158 216° Southwest 437 503 36,000  Level Boston Center
03:45PM 39.8914 -73.8075 215° Southwest 437 503 36,000  Level Boston Center
03:46PM 39.7925 -73.9003 216° Southwest 437 503 36,000  Level Boston Center
03:47PM 39.6947 -73.9914 216° Southwest 436 502 36,000  Level Boston Center
03:48PM 39.5964 -74.0825 216° Southwest 436 502 36,000  Level Boston Center
03:49PM 39.4967 -74.1736 215° Southwest 436 502 36,000  Level Boston Center
03:50PM 39.3936 -74.2703 216° Southwest 449 517 36,000  Level Washington Center
03:51PM 39.2967 -74.3581 215° Southwest 443 510 36,000  Level Washington Center
03:52PM 39.1975 -74.4506 216° Southwest 448 516 36,000  Level Washington Center
03:53PM 39.0983 -74.5350 213° Southwest 448 516 36,000  Level Washington Center
03:54PM 38.9989 -74.6300 217° Southwest 448 516 36,000  Level Washington Center
03:55PM 38.8975 -74.7222 215° Southwest 448 516 36,000  Level Washington Center
03:56PM 38.8003 -74.8086 215° Southwest 443 510 36,000  Level Washington Center
03:57PM 38.7006 -74.8975 215° Southwest 443 510 36,000  Level Washington Center
03:58PM 38.6011 -74.9833 214° Southwest 443 510 36,000  Level Washington Center
03:59PM 38.4994 -75.0744 215° Southwest 443 510 36,000  Level Washington Center
04:00PM 38.3975 -75.1600 213° Southwest 443 510 36,000  Level Washington Center
04:01PM 38.2956 -75.2397 212° Southwest 443 510 36,000  Level Washington Center
04:02PM 38.1875 -75.3144 209° Southwest 443 510 36,000  Level Washington Center
04:03PM 38.0811 -75.3886 209° Southwest 443 510 36,000  Level Washington Center
04:04PM 37.9728 -75.4681 210° Southwest 443 510 36,000  Level Washington Center
04:05PM 37.8667 -75.5417 209° Southwest 443 510 36,000  Level Washington Center
04:06PM 37.7581 -75.6156 208° Southwest 443 510 36,000  Level Washington Center
04:07PM 37.6497 -75.6914 209° Southwest 443 510 36,000  Level Washington Center
04:08PM 37.5431 -75.7672 209° Southwest 438 504 36,000  Level Washington Center
04:09PM 37.4344 -75.8403 208° Southwest 438 504 36,000  Level Washington Center
04:10PM 37.3281 -75.9158 209° Southwest 438 504 36,000  Level Washington Center
04:11PM 37.2194 -75.9908 209° Southwest 438 504 36,000  Level Washington Center
04:12PM 37.1128 -76.0633 208° Southwest 438 504 36,000  Level Washington Center
04:13PM 37.0039 -76.1381 209° Southwest 438 504 36,000  Level Washington Center
04:14PM 36.8889 -76.2100 207° Southwest 445 512 36,000  Level Washington Center
04:15PM 36.7778 -76.2844 208° Southwest 451 519 36,000  Level Washington Center
04:16PM 36.6711 -76.3611 210° Southwest 451 519 36,000  Level Washington Center
04:17PM 36.5578 -76.4375 208° Southwest 457 526 36,000  Level Washington Center
04:18PM 36.4489 -76.5086 208° Southwest 457 526 36,000  Level Washington Center
04:19PM 36.3397 -76.5822 209° Southwest 457 526 36,000  Level Washington Center
04:20PM 36.2286 -76.6556 208° Southwest 457 526 36,000  Level Washington Center
04:21PM 36.1172 -76.7286 208° Southwest 457 526 36,000  Level Washington Center
04:22PM 36.0081 -76.8039 209° Southwest 457 526 36,000  Level Washington Center
04:23PM 35.8925 -76.8739 206° Southwest 457 526 36,000  Level Washington Center
04:24PM 35.7833 -76.9464 208° Southwest 457 526 36,000  Level Washington Center
04:25PM 35.6739 -77.0214 209° Southwest 457 526 36,000  Level Washington Center
04:26PM 35.5686 -77.0936 209° Southwest 450 518 36,000  Level Washington Center
04:27PM 35.4592 -77.1628 207° Southwest 445 512 36,000  Level Washington Center
04:28PM 35.3478 -77.2344 208° Southwest 445 512 36,000  Level Washington Center
04:29PM 35.2361 -77.3061 208° Southwest 450 518 36,000  Level Washington Center
04:30PM 35.1286 -77.3772 208° Southwest 450 518 36,000  Level Washington Center
04:31PM 35.0214 -77.4461 208° Southwest 450 518 36,000  Level Washington Center
04:32PM 34.9133 -77.5397 215° Southwest 444 511 36,000  Level Washington Center
04:33PM 34.8444 -77.6672 237° Southwest 428 493 36,000  Level Washington Center
04:34PM 34.7494 -77.7306 209° Southwest 438 504 36,000  Level Washington Center
04:35PM 34.6297 -77.7728 196° South 438 504 36,000  Level Washington Center
04:36PM 34.5100 -77.8200 198° South 445 512 36,000  Level Washington Center
04:37PM 34.3881 -77.8644 197° South 451 519 36,000  Level Washington Center
04:38PM 34.2539 -77.9011 193° South 451 519 36,000  Level Washington Center
04:40PM 33.9889 -77.9761 193° South 448 516 36,000  Level Jacksonville Center
04:41PM 33.8672 -78.0106 193° South 453 521 36,000  Level Jacksonville Center
04:42PM 33.7433 -78.0450 193° South 453 521 36,000  Level Jacksonville Center
04:43PM 33.6197 -78.0867 196° South 453 521 36,000  Level Jacksonville Center
04:44PM 33.4978 -78.1206 193° South 453 521 36,000  Level Jacksonville Center
04:45PM 33.3761 -78.1544 193° South 453 521 36,000  Level Jacksonville Center
04:46PM 33.2522 -78.1883 193° South 453 521 36,000  Level Jacksonville Center
04:47PM 33.1303 -78.2222 193° South 453 521 36,000  Level Jacksonville Center
04:48PM 33.0083 -78.2581 194° South 453 521 36,000  Level Jacksonville Center
04:49PM 32.8822 -78.2894 192° South 453 521 36,000  Level Jacksonville Center
04:50PM 32.7606 -78.3278 195° South 453 521 36,000  Level Jacksonville Center
04:51PM 32.6386 -78.3611 193° South 453 521 36,000  Level Jacksonville Center
04:52PM 32.5167 -78.3917 192° South 453 521 36,000  Level Jacksonville Center
04:53PM 32.3925 -78.4275 194° South 453 521 36,000  Level Jacksonville Center
04:54PM 32.2708 -78.4678 196° South 453 521 36,000  Level Jacksonville Center
04:55PM 32.1489 -78.5056 195° South 453 521 36,000  Level Jacksonville Center
04:56PM 32.0250 -78.5408 194° South 453 521 36,000  Level Jacksonville Center
04:57PM 31.9031 -78.5761 194° South 453 521 36,000  Level Jacksonville Center
04:58PM 31.7769 -78.6136 194° South 458 527 36,000  Level Jacksonville Center
04:59PM 31.6550 -78.6486 194° South 453 521 36,000  Level Jacksonville Center
05:00PM 31.5350 -78.6833 194° South 453 521 36,000  Level Jacksonville Center
05:01PM 31.4108 -78.7181 193° South 453 521 36,000  Level Jacksonville Center
05:02PM 31.2869 -78.7553 194° South 453 521 36,000  Level Jacksonville Center
05:03PM 31.1647 -78.7850 192° South 453 521 36,000  Level Jacksonville Center
05:04PM 31.0428 -78.8242 195° South 453 521 36,000  Level Jacksonville Center
05:05PM 30.9106 -78.8614 194° South 448 516 36,000  Level Jacksonville Center
05:06PM 30.7906 -78.8953 194° South 441 507 36,000  Level Jacksonville Center
05:07PM 30.6619 -78.9275 192° South 456 525 36,000  Level Jacksonville Center
05:08PM 30.5419 -78.9636 195° South 462 532 36,000  Level Jacksonville Center
05:10PM 30.3772 -79.0136 195° South 451 519 36,000  Level Miami Center
05:11PM 30.2606 -79.0658 201° Southwest 451 519 36,000  Level Miami Center
05:12PM 30.1436 -79.1172 201° Southwest 451 519 36,000  Level Miami Center
05:13PM 30.0253 -79.1678 200° South 451 519 36,000  Level Miami Center
05:14PM 29.9044 -79.2219 201° Southwest 451 519 36,000  Level Miami Center
05:15PM 29.7864 -79.2719 200° South 451 519 36,000  Level Miami Center
05:16PM 29.6453 -79.3328 201° Southwest 451 519 36,000  Level Miami Center
05:17PM 29.5267 -79.3831 200° South 451 519 36,000  Level Miami Center
05:18PM 29.4106 -79.4339 201° Southwest 450 518 36,000  Level Miami Center
05:19PM 29.2917 -79.4839 200° South 451 519 36,000  Level Miami Center
05:20PM 29.1742 -79.5353 201° Southwest 451 519 36,000  Level Miami Center
05:21PM 29.0544 -79.5767 197° South 450 518 36,000  Level Miami Center
05:22PM 28.9300 -79.5978 188° South 449 517 36,000  Level Miami Center
05:23PM 28.8061 -79.6214 189° South 449 517 36,000  Level Miami Center
05:24PM 28.6578 -79.6475 189° South 450 518 36,000  Level Miami Center
05:25PM 28.5339 -79.6692 189° South 448 516 36,000  Level Miami Center
05:26PM 28.4103 -79.6908 189° South 448 516 36,000  Level Miami Center
05:27PM 28.2864 -79.7131 189° South 448 516 36,000  Level Miami Center
05:28PM 28.1633 -79.7350 189° South 448 516 36,000  Level Miami Center
05:29PM 28.0411 -79.7567 189° South 445 512 36,000  Level Miami Center
05:30PM 27.9175 -79.7783 189° South 446 513 36,000  Level Miami Center
05:31PM 27.7708 -79.8042 189° South 446 513 36,000  Level Miami Center
05:32PM 27.6428 -79.8272 189° South 445 512 36,000  Level Miami Center
05:33PM 27.5239 -79.8472 188° South 447 514 36,000  Level Miami Center
05:34PM 27.3950 -79.8708 189° South 447 514 36,000  Level Miami Center
05:35PM 27.2781 -79.8908 189° South 445 512 36,000  Level Miami Center
05:36PM 27.1547 -79.9125 189° South 445 512 36,000  Level Miami Center
05:37PM 27.0189 -79.9364 189° South 446 513 36,000  Level Miami Center
05:38PM 26.8917 -79.9581 189° South 446 513 36,000  Level Miami Center
05:39PM 26.7647 -79.9808 189° South 445 512 36,000  Level Miami Center
05:40PM 26.6333 -80.0031 189° South 444 511 36,000  Level Miami Center
05:41PM 26.5103 -80.0233 188° South 444 511 36,000  Level Miami Center
05:42PM 26.3878 -80.0456 189° South 445 512 36,000  Level Miami Center
05:43PM 26.2553 -80.0683 189° South 445 512 36,000  Level Miami Center
05:44PM 26.1422 -80.0872 189° South 447 514 36,000  Level Miami Center
05:46PM 26.0178 -80.1067 188° South 451 519 36,000  Level Miami Center
05:47PM 25.8936 -80.1297 189° South 451 519 36,000  Level Miami Center
05:48PM 25.7722 -80.1692 196° South 451 519 36,000  Level Miami Center
05:49PM 25.6611 -80.2381 209° Southwest 452 520 36,000  Level Miami Center
05:50PM 25.5531 -80.3617 226° Southwest 460 529 36,000  Level Miami Center
05:51PM 25.4742 -80.4792 233° Southwest 460 529 36,000  Level Miami Center
05:52PM 25.3864 -80.5808 226° Southwest 458 527 36,000  Level Miami Center
05:53PM 25.2975 -80.6828 226° Southwest 456 525 36,000  Level Miami Center
05:54PM 25.2094 -80.7839 226° Southwest 456 525 36,000  Level Miami Center
05:55PM 25.1214 -80.8847 226° Southwest 456 525 36,000  Level Miami Center
05:56PM 25.0467 -80.9967 234° Southwest 453 521 36,000  Level Miami Center
05:57PM 24.9753 -81.1111 235° Southwest 453 521 36,000 -480 Level Miami Center
05:58PM 24.9028 -81.2261 235° Southwest 454 522 35,100 -1,020 Descending Miami Center
05:59PM 24.8161 -81.3642 235° Southwest 455 524 33,900 -1,440 Descending Miami Center
06:00PM 24.7436 -81.4789 235° Southwest 455 524 32,200 -1,440 Descending Miami Center
06:01PM 24.6758 -81.5864 235° Southwest 451 519 31,000 -1,140 Descending Miami Center
06:02PM 24.6022 -81.7028 235° Southwest 446 513 29,900 -1,020 Descending Miami Center
06:03PM 24.5256 -81.8194 234° Southwest 441 507 28,900 -1,020 Descending Miami Center
06:04PM 24.4561 -81.9097 230° Southwest 426 490 27,900 -1,020 Descending Miami Center
06:05PM 24.3836 -82.0089 231° Southwest 420 483 26,900 -1,080 Descending Miami Center
06:06PM 24.2972 -82.1233 230° Southwest 409 471 25,700 -1,080 Descending Miami Center
06:07PM 24.2258 -82.2192 231° Southwest 408 470 24,700 -1,020 Descending Miami Center
06:08PM 24.1567 -82.3128 231° Southwest 400 460 23,700 -1,020 Descending Miami Center
06:09PM 24.0864 -82.4044 230° Southwest 397 457 22,700 -1,020 Descending Miami Center
06:11PM 23.9778 -82.5135 173° South  Level FlightAware Approximate
06:18PM 23.1319 -82.4164 170° South  Level FlightAware Approximate
06:19PM 23.0117 -82.4000 180° South  Level FlightAware Approximate
06:20PM 22.9891 -82.4091 180° South  Level Estimated
06:21PM 22.9891 -82.4091 180° South  Level Estimated
06:22PM 22.9891 -82.4091 180° South  Level Estimated
06:23PM 22.9891 -82.4091 180° South  Level Estimated
06:24PM 22.9891 -82.4091 180° South  Level Estimated
06:25PM 22.9891 -82.4091 180° South  Level Estimated
06:26PM 22.9891 -82.4091 180° South  Level Estimated
06:27PM 22.9891 -82.4091 180° South  Level Estimated
06:28PM 22.9891 -82.4091 180° South  Level Estimated
06:29PM 22.9891 -82.4091 180° South  Level Estimated
06:30PM 22.9891 -82.4091 180° South  Level Estimated
06:31PM 22.9891 -82.4091 180° South  Level Estimated
06:32PM 22.9891 -82.4091 180° South  Level Estimated
06:33PM 22.9891 -82.4091 180° South  Level Estimated
06:34PM 22.9891 -82.4091 180° South  Level Estimated
06:35PM 22.9891 -82.4091 180° South  Level Estimated
06:36PM 22.9891 -82.4091 180° South  Level Estimated
06:37PM 22.9891 -82.4091 180° South  Level Estimated
06:38PM 22.9891 -82.4091 180° South  Level Estimated
06:39PM 22.9891 -82.4091 180° South  Level Estimated
06:40PM 22.9891 -82.4091 180° South  Level Estimated
06:41PM 22.9891 -82.4091 180° South  Level Estimated